sensor_id;sensor_type;location;lat;lon;timestamp;pressure;altitude;pressure_sealevel;temperature;humidity
66668;BME280;57205;51.438;-2.006;2023-08-21T00:01:14;101685.09;;;16.25;100.00
66668;BME280;57205;51.438;-2.006;2023-08-21T00:03:40;101684.84;;;16.21;100.00
66668;BME280;57205;51.438;-2.006;2023-08-21T00:06:05;101691.59;;;16.19;100.00
66668;BME280;57205;51.438;-2.006;2023-08-21T00:08:31;101695.66;;;16.16;100.00
66668;BME280;57205;51.438;-2.006;2023-08-21T00:10:56;101692.97;;;16.11;100.00
66668;BME280;57205;51.438;-2.006;2023-08-21T00:13:21;101690.53;;;16.10;100.00
66668;BME280;57205;51.438;-2.006;2023-08-21T00:15:47;101684.59;;;16.08;100.00
66668;BME280;57205;51.438;-2.006;2023-08-21T00:18:12;101697.28;;;16.07;100.00
66668;BME280;57205;51.438;-2.006;2023-08-21T00:20:38;101694.59;;;16.07;100.00
66668;BME280;57205;51.438;-2.006;2023-08-21T00:23:05;101688.13;;;16.08;100.00
66668;BME280;57205;51.438;-2.006;2023-08-21T00:25:30;101690.28;;;16.06;100.00
66668;BME280;57205;51.438;-2.006;2023-08-21T00:27:56;101689.19;;;16.07;100.00
66668;BME280;57205;51.438;-2.006;2023-08-21T00:30:21;101692.72;;;16.03;100.00
66668;BME280;57205;51.438;-2.006;2023-08-21T00:32:46;101695.44;;;15.98;100.00
66668;BME280;57205;51.438;-2.006;2023-08-21T00:35:20;101697.06;;;15.94;100.00
66668;BME280;57205;51.438;-2.006;2023-08-21T00:37:46;101703.00;;;15.96;100.00
66668;BME280;57205;51.438;-2.006;2023-08-21T00:40:17;101707.56;;;16.00;100.00
66668;BME280;57205;51.438;-2.006;2023-08-21T00:42:43;101704.59;;;16.02;100.00
66668;BME280;57205;51.438;-2.006;2023-08-21T00:45:08;101697.31;;;16.02;100.00
66668;BME280;57205;51.438;-2.006;2023-08-21T00:47:35;101695.69;;;16.06;100.00
66668;BME280;57205;51.438;-2.006;2023-08-21T00:50:01;101696.22;;;16.08;100.00
66668;BME280;57205;51.438;-2.006;2023-08-21T00:52:27;101701.88;;;16.12;100.00
66668;BME280;57205;51.438;-2.006;2023-08-21T00:54:53;101691.91;;;16.12;100.00
66668;BME280;57205;51.438;-2.006;2023-08-21T00:57:20;101692.97;;;16.11;100.00
66668;BME280;57205;51.438;-2.006;2023-08-21T00:59:47;101694.34;;;16.09;100.00
66668;BME280;57205;51.438;-2.006;2023-08-21T01:02:13;101692.69;;;16.13;100.00
66668;BME280;57205;51.438;-2.006;2023-08-21T01:04:39;101693.53;;;16.08;100.00
66668;BME280;57205;51.438;-2.006;2023-08-21T01:07:04;101690.81;;;16.08;100.00
66668;BME280;57205;51.438;-2.006;2023-08-21T01:10:01;101695.97;;;16.05;100.00
66668;BME280;57205;51.438;-2.006;2023-08-21T01:12:45;101699.47;;;16.00;100.00
66668;BME280;57205;51.438;-2.006;2023-08-21T01:15:16;101707.03;;;15.98;100.00
66668;BME280;57205;51.438;-2.006;2023-08-21T01:17:44;101701.66;;;15.93;100.00
66668;BME280;57205;51.438;-2.006;2023-08-21T01:20:11;101697.88;;;15.89;100.00
66668;BME280;57205;51.438;-2.006;2023-08-21T01:22:38;101700.03;;;15.87;100.00
66668;BME280;57205;51.438;-2.006;2023-08-21T01:25:05;101694.38;;;15.84;100.00
66668;BME280;57205;51.438;-2.006;2023-08-21T01:27:31;101699.78;;;15.84;100.00
66668;BME280;57205;51.438;-2.006;2023-08-21T01:29:57;101698.97;;;15.83;100.00
66668;BME280;57205;51.438;-2.006;2023-08-21T01:32:59;101696.25;;;15.83;100.00
66668;BME280;57205;51.438;-2.006;2023-08-21T01:35:25;101698.72;;;15.85;100.00
66668;BME280;57205;51.438;-2.006;2023-08-21T01:37:51;101696.00;;;15.85;100.00
66668;BME280;57205;51.438;-2.006;2023-08-21T01:40:21;101685.47;;;15.83;100.00
66668;BME280;57205;51.438;-2.006;2023-08-21T01:42:48;101687.63;;;15.86;100.00
66668;BME280;57205;51.438;-2.006;2023-08-21T01:45:13;101693.31;;;15.85;100.00
66668;BME280;57205;51.438;-2.006;2023-08-21T01:47:40;101686.00;;;15.85;100.00
66668;BME280;57205;51.438;-2.006;2023-08-21T01:50:07;101689.25;;;15.87;100.00
66668;BME280;57205;51.438;-2.006;2023-08-21T01:52:33;101690.63;;;15.85;100.00
66668;BME280;57205;51.438;-2.006;2023-08-21T01:54:59;101682.50;;;15.85;100.00
66668;BME280;57205;51.438;-2.006;2023-08-21T01:57:24;101687.63;;;15.86;100.00
66668;BME280;57205;51.438;-2.006;2023-08-21T01:59:50;101687.09;;;15.84;100.00
66668;BME280;57205;51.438;-2.006;2023-08-21T02:02:15;101677.38;;;15.83;100.00
66668;BME280;57205;51.438;-2.006;2023-08-21T02:04:41;101686.56;;;15.82;100.00
66668;BME280;57205;51.438;-2.006;2023-08-21T02:07:06;101691.41;;;15.80;100.00
66668;BME280;57205;51.438;-2.006;2023-08-21T02:09:32;101697.63;;;15.76;100.00
66668;BME280;57205;51.438;-2.006;2023-08-21T02:11:58;101703.56;;;15.73;100.00
66668;BME280;57205;51.438;-2.006;2023-08-21T02:14:24;101698.19;;;15.68;100.00
66668;BME280;57205;51.438;-2.006;2023-08-21T02:16:51;101698.44;;;15.61;100.00
66668;BME280;57205;51.438;-2.006;2023-08-21T02:19:17;101694.66;;;15.57;100.00
66668;BME280;57205;51.438;-2.006;2023-08-21T02:21:42;101700.59;;;15.54;100.00
66668;BME280;57205;51.438;-2.006;2023-08-21T02:24:08;101704.91;;;15.50;100.00
66668;BME280;57205;51.438;-2.006;2023-08-21T02:26:34;101699.81;;;15.43;100.00
66668;BME280;57205;51.438;-2.006;2023-08-21T02:28:59;101705.47;;;15.42;100.00
66668;BME280;57205;51.438;-2.006;2023-08-21T02:31:25;101703.28;;;15.39;100.00
66668;BME280;57205;51.438;-2.006;2023-08-21T02:33:50;101698.44;;;15.36;100.00
66668;BME280;57205;51.438;-2.006;2023-08-21T02:36:16;101704.34;;;15.33;100.00
66668;BME280;57205;51.438;-2.006;2023-08-21T02:38:42;101709.75;;;15.33;100.00
66668;BME280;57205;51.438;-2.006;2023-08-21T02:41:07;101709.50;;;15.34;100.00
66668;BME280;57205;51.438;-2.006;2023-08-21T02:43:34;101706.53;;;15.36;100.00
66668;BME280;57205;51.438;-2.006;2023-08-21T02:45:59;101711.94;;;15.41;100.00
66668;BME280;57205;51.438;-2.006;2023-08-21T02:48:24;101703.31;;;15.44;100.00
66668;BME280;57205;51.438;-2.006;2023-08-21T02:50:50;101713.84;;;15.50;100.00
66668;BME280;57205;51.438;-2.006;2023-08-21T02:53:15;101712.50;;;15.58;100.00
66668;BME280;57205;51.438;-2.006;2023-08-21T02:55:41;101711.94;;;15.61;100.00
66668;BME280;57205;51.438;-2.006;2023-08-21T02:58:06;101712.47;;;15.63;100.00
66668;BME280;57205;51.438;-2.006;2023-08-21T03:00:31;101708.16;;;15.67;100.00
66668;BME280;57205;51.438;-2.006;2023-08-21T03:02:57;101709.25;;;15.66;100.00
66668;BME280;57205;51.438;-2.006;2023-08-21T03:05:22;101712.50;;;15.68;100.00
66668;BME280;57205;51.438;-2.006;2023-08-21T03:07:48;101709.53;;;15.70;100.00
66668;BME280;57205;51.438;-2.006;2023-08-21T03:10:13;101715.69;;;15.70;100.00
66668;BME280;57205;51.438;-2.006;2023-08-21T03:12:39;101717.63;;;15.70;100.00
66668;BME280;57205;51.438;-2.006;2023-08-21T03:15:05;101710.31;;;15.70;100.00
66668;BME280;57205;51.438;-2.006;2023-08-21T03:17:30;101709.25;;;15.66;100.00
66668;BME280;57205;51.438;-2.006;2023-08-21T03:19:56;101705.47;;;15.67;100.00
66668;BME280;57205;51.438;-2.006;2023-08-21T03:22:21;101707.63;;;15.65;100.00
66668;BME280;57205;51.438;-2.006;2023-08-21T03:24:47;101711.66;;;15.62;100.00
66668;BME280;57205;51.438;-2.006;2023-08-21T03:27:15;101714.66;;;15.66;100.00
66668;BME280;57205;51.438;-2.006;2023-08-21T03:29:41;101726.22;;;15.67;100.00
66668;BME280;57205;51.438;-2.006;2023-08-21T03:32:13;101716.25;;;15.67;100.00
66668;BME280;57205;51.438;-2.006;2023-08-21T03:34:39;101715.97;;;15.69;100.00
66668;BME280;57205;51.438;-2.006;2023-08-21T03:37:04;101710.84;;;15.72;100.00
66668;BME280;57205;51.438;-2.006;2023-08-21T03:39:30;101709.78;;;15.73;100.00
66668;BME280;57205;51.438;-2.006;2023-08-21T03:41:55;101703.84;;;15.76;100.00
66668;BME280;57205;51.438;-2.006;2023-08-21T03:44:21;101710.03;;;15.77;100.00
66668;BME280;57205;51.438;-2.006;2023-08-21T03:46:46;101703.28;;;15.74;100.00
66668;BME280;57205;51.438;-2.006;2023-08-21T03:49:11;101702.50;;;15.74;100.00
66668;BME280;57205;51.438;-2.006;2023-08-21T03:51:37;101702.75;;;15.72;100.00
66668;BME280;57205;51.438;-2.006;2023-08-21T03:54:04;101707.09;;;15.73;100.00
66668;BME280;57205;51.438;-2.006;2023-08-21T03:56:31;101709.78;;;15.73;100.00
66668;BME280;57205;51.438;-2.006;2023-08-21T03:58:56;101712.19;;;15.75;100.00
66668;BME280;57205;51.438;-2.006;2023-08-21T04:01:22;101703.00;;;15.76;100.00
66668;BME280;57205;51.438;-2.006;2023-08-21T04:03:47;101703.84;;;15.76;100.00
66668;BME280;57205;51.438;-2.006;2023-08-21T04:06:13;101701.13;;;15.76;100.00
66668;BME280;57205;51.438;-2.006;2023-08-21T04:08:38;101700.06;;;15.77;100.00
66668;BME280;57205;51.438;-2.006;2023-08-21T04:11:05;101701.66;;;15.78;100.00
66668;BME280;57205;51.438;-2.006;2023-08-21T04:13:32;101703.56;;;15.83;100.00
66668;BME280;57205;51.438;-2.006;2023-08-21T04:15:57;101699.78;;;15.84;100.00
66668;BME280;57205;51.438;-2.006;2023-08-21T04:18:23;101700.59;;;15.84;100.00
66668;BME280;57205;51.438;-2.006;2023-08-21T04:20:49;101692.50;;;15.84;100.00
66668;BME280;57205;51.438;-2.006;2023-08-21T04:23:14;101692.75;;;15.88;100.00
66668;BME280;57205;51.438;-2.006;2023-08-21T04:25:40;101693.56;;;15.88;100.00
66668;BME280;57205;51.438;-2.006;2023-08-21T04:28:05;101694.91;;;15.91;100.00
66668;BME280;57205;51.438;-2.006;2023-08-21T04:30:33;101698.13;;;15.93;100.00
66668;BME280;57205;51.438;-2.006;2023-08-21T04:32:59;101701.94;;;15.92;100.00
66668;BME280;57205;51.438;-2.006;2023-08-21T04:35:25;101706.22;;;15.93;100.00
66668;BME280;57205;51.438;-2.006;2023-08-21T04:37:50;101706.22;;;15.93;100.00
66668;BME280;57205;51.438;-2.006;2023-08-21T04:40:17;101715.97;;;15.94;100.00
66668;BME280;57205;51.438;-2.006;2023-08-21T04:42:45;101717.28;;;15.96;100.00
66668;BME280;57205;51.438;-2.006;2023-08-21T04:45:11;101715.66;;;16.00;100.00
66668;BME280;57205;51.438;-2.006;2023-08-21T04:47:37;101712.44;;;15.98;100.00
66668;BME280;57205;51.438;-2.006;2023-08-21T04:50:03;101718.91;;;16.02;100.00
66668;BME280;57205;51.438;-2.006;2023-08-21T04:52:29;101719.72;;;16.03;100.00
66668;BME280;57205;51.438;-2.006;2023-08-21T04:54:55;101717.31;;;16.01;100.00
66668;BME280;57205;51.438;-2.006;2023-08-21T04:57:20;101714.31;;;16.03;100.00
66668;BME280;57205;51.438;-2.006;2023-08-21T04:59:51;101722.97;;;16.05;100.00
66668;BME280;57205;51.438;-2.006;2023-08-21T05:02:16;101725.38;;;16.06;100.00
66668;BME280;57205;51.438;-2.006;2023-08-21T05:04:42;101728.09;;;16.06;100.00
66668;BME280;57205;51.438;-2.006;2023-08-21T05:07:07;101730.22;;;16.09;100.00
66668;BME280;57205;51.438;-2.006;2023-08-21T05:09:32;101717.28;;;16.06;100.00
66668;BME280;57205;51.438;-2.006;2023-08-21T05:11:58;101725.38;;;16.06;100.00
66668;BME280;57205;51.438;-2.006;2023-08-21T05:14:24;101723.75;;;16.05;100.00
66668;BME280;57205;51.438;-2.006;2023-08-21T05:16:49;101724.03;;;16.09;100.00
66668;BME280;57205;51.438;-2.006;2023-08-21T05:19:16;101727.53;;;16.09;100.00
66668;BME280;57205;51.438;-2.006;2023-08-21T05:21:41;101719.44;;;16.09;100.00
66668;BME280;57205;51.438;-2.006;2023-08-21T05:24:07;101714.03;;;16.09;100.00
66668;BME280;57205;51.438;-2.006;2023-08-21T05:26:32;101714.31;;;16.08;100.00
66668;BME280;57205;51.438;-2.006;2023-08-21T05:28:58;101717.81;;;16.08;100.00
66668;BME280;57205;51.438;-2.006;2023-08-21T05:31:24;101721.06;;;16.10;100.00
66668;BME280;57205;51.438;-2.006;2023-08-21T05:33:49;101722.13;;;16.09;100.00
66668;BME280;57205;51.438;-2.006;2023-08-21T05:36:15;101711.06;;;16.11;100.00
66668;BME280;57205;51.438;-2.006;2023-08-21T05:38:40;101717.25;;;16.11;100.00
66668;BME280;57205;51.438;-2.006;2023-08-21T05:41:06;101714.28;;;16.18;100.00
66668;BME280;57205;51.438;-2.006;2023-08-21T05:43:33;101718.56;;;16.29;100.00
66668;BME280;57205;51.438;-2.006;2023-08-21T05:45:59;101729.03;;;16.55;100.00
66668;BME280;57205;51.438;-2.006;2023-08-21T05:48:25;101728.22;;;17.09;100.00
66668;BME280;57205;51.438;-2.006;2023-08-21T05:50:51;101714.25;;;17.69;100.00
66668;BME280;57205;51.438;-2.006;2023-08-21T05:53:17;101707.59;;;18.37;100.00
66668;BME280;57205;51.438;-2.006;2023-08-21T05:55:42;101692.72;;;18.96;100.00
66668;BME280;57205;51.438;-2.006;2023-08-21T05:58:08;101688.94;;;19.34;100.00
66668;BME280;57205;51.438;-2.006;2023-08-21T06:00:34;101681.13;;;19.46;100.00
66668;BME280;57205;51.438;-2.006;2023-08-21T06:03:03;101681.88;;;19.33;100.00
66668;BME280;57205;51.438;-2.006;2023-08-21T06:05:28;101683.19;;;19.17;100.00
66668;BME280;57205;51.438;-2.006;2023-08-21T06:07:55;101685.09;;;18.98;100.00
66668;BME280;57205;51.438;-2.006;2023-08-21T06:10:20;101691.19;;;19.08;100.00
66668;BME280;57205;51.438;-2.006;2023-08-21T06:12:46;101688.50;;;19.59;100.00
66668;BME280;57205;51.438;-2.006;2023-08-21T06:15:13;101683.06;;;20.32;100.00
66668;BME280;57205;51.438;-2.006;2023-08-21T06:17:39;101680.31;;;20.95;100.00
66668;BME280;57205;51.438;-2.006;2023-08-21T06:20:05;101679.66;;;21.56;100.00
66668;BME280;57205;51.438;-2.006;2023-08-21T06:22:34;101664.59;;;22.11;100.00
66668;BME280;57205;51.438;-2.006;2023-08-21T06:25:00;101667.31;;;22.67;100.00
66668;BME280;57205;51.438;-2.006;2023-08-21T06:27:25;101669.72;;;23.20;100.00
66668;BME280;57205;51.438;-2.006;2023-08-21T06:29:52;101671.97;;;23.90;100.00
66668;BME280;57205;51.438;-2.006;2023-08-21T06:32:17;101665.59;;;24.24;100.00
66668;BME280;57205;51.438;-2.006;2023-08-21T06:34:43;101678.97;;;23.70;100.00
66668;BME280;57205;51.438;-2.006;2023-08-21T06:37:08;101671.66;;;23.19;100.00
66668;BME280;57205;51.438;-2.006;2023-08-21T06:39:34;101674.66;;;22.50;100.00
66668;BME280;57205;51.438;-2.006;2023-08-21T06:42:00;101688.22;;;21.85;100.00
66668;BME280;57205;51.438;-2.006;2023-08-21T06:44:26;101685.09;;;21.25;100.00
66668;BME280;57205;51.438;-2.006;2023-08-21T06:46:51;101696.69;;;20.81;100.00
66668;BME280;57205;51.438;-2.006;2023-08-21T06:49:17;101688.38;;;20.51;100.00
66668;BME280;57205;51.438;-2.006;2023-08-21T06:51:42;101683.06;;;20.18;100.00
66668;BME280;57205;51.438;-2.006;2023-08-21T06:54:08;101688.19;;;20.06;100.00
66668;BME280;57205;51.438;-2.006;2023-08-21T06:56:33;101690.91;;;20.20;100.00
66668;BME280;57205;51.438;-2.006;2023-08-21T06:58:59;101688.97;;;20.61;100.00
66668;BME280;57205;51.438;-2.006;2023-08-21T07:01:24;101691.50;;;21.51;100.00
66668;BME280;57205;51.438;-2.006;2023-08-21T07:03:50;101682.47;;;22.43;100.00
66668;BME280;57205;51.438;-2.006;2023-08-21T07:06:15;101683.69;;;22.93;100.00
66668;BME280;57205;51.438;-2.006;2023-08-21T07:08:41;101691.72;;;23.49;100.00
66668;BME280;57205;51.438;-2.006;2023-08-21T07:11:07;101692.47;;;23.75;100.00
66668;BME280;57205;51.438;-2.006;2023-08-21T07:13:37;101688.44;;;23.73;100.00
66668;BME280;57205;51.438;-2.006;2023-08-21T07:16:05;101692.53;;;23.41;100.00
66668;BME280;57205;51.438;-2.006;2023-08-21T07:18:35;101697.06;;;23.37;100.00
66668;BME280;57205;51.438;-2.006;2023-08-21T07:21:01;101698.25;;;23.65;100.00
66668;BME280;57205;51.438;-2.006;2023-08-21T07:23:32;101700.06;;;24.45;100.00
66668;BME280;57205;51.438;-2.006;2023-08-21T07:25:59;101697.94;;;25.00;100.00
66668;BME280;57205;51.438;-2.006;2023-08-21T07:28:26;101700.28;;;25.64;100.00
66668;BME280;57205;51.438;-2.006;2023-08-21T07:30:56;101690.09;;;26.21;95.08
66668;BME280;57205;51.438;-2.006;2023-08-21T07:33:22;101688.69;;;26.63;90.15
66668;BME280;57205;51.438;-2.006;2023-08-21T07:35:47;101691.78;;;27.14;87.63
66668;BME280;57205;51.438;-2.006;2023-08-21T07:38:13;101695.44;;;27.45;82.56
66668;BME280;57205;51.438;-2.006;2023-08-21T07:40:39;101690.28;;;27.16;82.20
66668;BME280;57205;51.438;-2.006;2023-08-21T07:43:05;101697.28;;;26.62;85.16
66668;BME280;57205;51.438;-2.006;2023-08-21T07:45:33;101703.38;;;25.86;90.89
66668;BME280;57205;51.438;-2.006;2023-08-21T07:48:02;101708.44;;;25.19;95.60
66668;BME280;57205;51.438;-2.006;2023-08-21T07:50:30;101696.19;;;24.46;99.85
66668;BME280;57205;51.438;-2.006;2023-08-21T07:52:55;101696.44;;;23.86;100.00
66668;BME280;57205;51.438;-2.006;2023-08-21T07:55:21;101694.78;;;23.48;100.00
66668;BME280;57205;51.438;-2.006;2023-08-21T07:57:46;101698.47;;;23.00;100.00
66668;BME280;57205;51.438;-2.006;2023-08-21T08:00:12;101701.34;;;22.78;100.00
66668;BME280;57205;51.438;-2.006;2023-08-21T08:02:37;101695.00;;;22.44;100.00
66668;BME280;57205;51.438;-2.006;2023-08-21T08:05:03;101698.94;;;22.20;100.00
66668;BME280;57205;51.438;-2.006;2023-08-21T08:07:38;101694.75;;;22.14;100.00
66668;BME280;57205;51.438;-2.006;2023-08-21T08:10:03;101694.09;;;22.09;100.00
66668;BME280;57205;51.438;-2.006;2023-08-21T08:12:29;101694.50;;;21.94;100.00
66668;BME280;57205;51.438;-2.006;2023-08-21T08:14:54;101698.78;;;21.86;100.00
66668;BME280;57205;51.438;-2.006;2023-08-21T08:17:20;101697.75;;;21.74;100.00
66668;BME280;57205;51.438;-2.006;2023-08-21T08:19:45;101698.81;;;21.64;100.00
66668;BME280;57205;51.438;-2.006;2023-08-21T08:22:10;101703.44;;;21.64;100.00
66668;BME280;57205;51.438;-2.006;2023-08-21T08:24:36;101688.97;;;21.55;100.00
66668;BME280;57205;51.438;-2.006;2023-08-21T08:27:01;101691.84;;;21.50;100.00
66668;BME280;57205;51.438;-2.006;2023-08-21T08:29:27;101693.66;;;21.41;100.00
66668;BME280;57205;51.438;-2.006;2023-08-21T08:31:52;101691.53;;;21.29;100.00
66668;BME280;57205;51.438;-2.006;2023-08-21T08:34:18;101683.84;;;21.31;100.00
66668;BME280;57205;51.438;-2.006;2023-08-21T08:36:45;101680.81;;;21.32;100.00
66668;BME280;57205;51.438;-2.006;2023-08-21T08:39:11;101688.91;;;21.24;100.00
66668;BME280;57205;51.438;-2.006;2023-08-21T08:41:45;101704.25;;;21.20;100.00
66668;BME280;57205;51.438;-2.006;2023-08-21T08:44:15;101713.34;;;21.15;100.00
66668;BME280;57205;51.438;-2.006;2023-08-21T08:46:43;101709.06;;;21.01;100.00
66668;BME280;57205;51.438;-2.006;2023-08-21T08:49:09;101710.97;;;20.87;100.00
66668;BME280;57205;51.438;-2.006;2023-08-21T08:51:34;101709.69;;;20.84;100.00
66668;BME280;57205;51.438;-2.006;2023-08-21T08:54:03;101712.09;;;20.86;100.00
66668;BME280;57205;51.438;-2.006;2023-08-21T08:56:31;101708.69;;;20.80;100.00
66668;BME280;57205;51.438;-2.006;2023-08-21T08:58:57;101721.09;;;20.73;100.00
66668;BME280;57205;51.438;-2.006;2023-08-21T09:01:23;101722.00;;;20.68;100.00
66668;BME280;57205;51.438;-2.006;2023-08-21T09:03:49;101713.94;;;20.63;100.00
66668;BME280;57205;51.438;-2.006;2023-08-21T09:06:17;101712.94;;;20.59;100.00
66668;BME280;57205;51.438;-2.006;2023-08-21T09:08:55;101717.69;;;20.54;100.00
66668;BME280;57205;51.438;-2.006;2023-08-21T09:11:21;101719.91;;;20.52;100.00
66668;BME280;57205;51.438;-2.006;2023-08-21T09:13:50;101714.88;;;20.59;100.00
66668;BME280;57205;51.438;-2.006;2023-08-21T09:16:18;101718.06;;;20.74;100.00
66668;BME280;57205;51.438;-2.006;2023-08-21T09:19:02;101710.91;;;20.78;100.00
66668;BME280;57205;51.438;-2.006;2023-08-21T09:21:29;101708.06;;;20.83;100.00
66668;BME280;57205;51.438;-2.006;2023-08-21T09:24:01;101706.53;;;20.91;100.00
66668;BME280;57205;51.438;-2.006;2023-08-21T09:26:31;101703.31;;;21.02;100.00
66668;BME280;57205;51.438;-2.006;2023-08-21T09:29:05;101712.22;;;21.16;100.00
66668;BME280;57205;51.438;-2.006;2023-08-21T09:31:33;101704.50;;;21.32;100.00
66668;BME280;57205;51.438;-2.006;2023-08-21T09:33:59;101707.09;;;21.37;100.00
66668;BME280;57205;51.438;-2.006;2023-08-21T09:36:26;101701.72;;;21.46;100.00
66668;BME280;57205;51.438;-2.006;2023-08-21T09:38:52;101701.72;;;21.46;100.00
66668;BME280;57205;51.438;-2.006;2023-08-21T09:41:21;101697.69;;;21.43;100.00
66668;BME280;57205;51.438;-2.006;2023-08-21T09:43:47;101697.34;;;21.36;100.00
66668;BME280;57205;51.438;-2.006;2023-08-21T09:46:23;101695.28;;;21.42;100.00
66668;BME280;57205;51.438;-2.006;2023-08-21T09:48:51;101700.22;;;21.62;100.00
66668;BME280;57205;51.438;-2.006;2023-08-21T09:51:18;101700.94;;;21.76;100.00
66668;BME280;57205;51.438;-2.006;2023-08-21T09:53:44;101701.41;;;22.00;100.00
66668;BME280;57205;51.438;-2.006;2023-08-21T09:56:10;101693.97;;;22.22;100.00
66668;BME280;57205;51.438;-2.006;2023-08-21T09:58:36;101697.66;;;22.83;100.00
66668;BME280;57205;51.438;-2.006;2023-08-21T10:01:04;101699.44;;;23.30;100.00
66668;BME280;57205;51.438;-2.006;2023-08-21T10:03:38;101703.16;;;23.43;100.00
66668;BME280;57205;51.438;-2.006;2023-08-21T10:06:05;101690.41;;;23.64;100.00
66668;BME280;57205;51.438;-2.006;2023-08-21T10:08:37;101692.75;;;23.82;100.00
66668;BME280;57205;51.438;-2.006;2023-08-21T10:11:05;101693.34;;;24.05;100.00
66668;BME280;57205;51.438;-2.006;2023-08-21T10:13:38;101688.22;;;24.03;100.00
66668;BME280;57205;51.438;-2.006;2023-08-21T10:16:04;101690.88;;;23.74;100.00
66668;BME280;57205;51.438;-2.006;2023-08-21T10:18:32;101696.97;;;23.71;100.00
66668;BME280;57205;51.438;-2.006;2023-08-21T10:21:30;101691.13;;;23.35;100.00
66668;BME280;57205;51.438;-2.006;2023-08-21T10:24:00;101696.56;;;23.09;100.00
66668;BME280;57205;51.438;-2.006;2023-08-21T10:26:26;101685.47;;;23.06;100.00
66668;BME280;57205;51.438;-2.006;2023-08-21T10:33:54;101673.38;;;23.67;100.00
66668;BME280;57205;51.438;-2.006;2023-08-21T10:39:29;101659.50;;;24.18;100.00
66668;BME280;57205;51.438;-2.006;2023-08-21T10:42:10;101660.38;;;24.31;100.00
66668;BME280;57205;51.438;-2.006;2023-08-21T10:49:56;101649.00;;;23.82;100.00
66668;BME280;57205;51.438;-2.006;2023-08-21T10:52:26;101656.16;;;23.66;100.00
66668;BME280;57205;51.438;-2.006;2023-08-21T10:54:56;101653.00;;;23.47;100.00
66668;BME280;57205;51.438;-2.006;2023-08-21T10:57:23;101643.38;;;23.15;100.00
66668;BME280;57205;51.438;-2.006;2023-08-21T11:00:03;101643.41;;;23.07;100.00
66668;BME280;57205;51.438;-2.006;2023-08-21T11:02:30;101656.09;;;23.03;100.00
66668;BME280;57205;51.438;-2.006;2023-08-21T11:04:57;101650.78;;;22.98;100.00
66668;BME280;57205;51.438;-2.006;2023-08-21T11:07:25;101644.84;;;22.87;100.00
66668;BME280;57205;51.438;-2.006;2023-08-21T11:09:50;101653.66;;;22.93;100.00
66668;BME280;57205;51.438;-2.006;2023-08-21T11:12:18;101660.41;;;23.04;100.00
66668;BME280;57205;51.438;-2.006;2023-08-21T11:14:45;101656.56;;;23.31;100.00
66668;BME280;57205;51.438;-2.006;2023-08-21T11:17:12;101662.91;;;23.60;96.14
66668;BME280;57205;51.438;-2.006;2023-08-21T11:19:39;101657.56;;;23.81;95.51
66668;BME280;57205;51.438;-2.006;2023-08-21T11:22:05;101659.59;;;23.92;94.77
66668;BME280;57205;51.438;-2.006;2023-08-21T11:24:44;101658.66;;;23.88;94.64
66668;BME280;57205;51.438;-2.006;2023-08-21T11:27:15;101658.47;;;23.93;95.62
66668;BME280;57205;51.438;-2.006;2023-08-21T11:29:47;101660.72;;;23.91;96.07
66668;BME280;57205;51.438;-2.006;2023-08-21T11:32:14;101657.34;;;23.94;95.99
66668;BME280;57205;51.438;-2.006;2023-08-21T11:34:52;101651.53;;;24.04;96.47
66668;BME280;57205;51.438;-2.006;2023-08-21T11:37:26;101643.56;;;24.20;96.50
66668;BME280;57205;51.438;-2.006;2023-08-21T11:39:56;101639.72;;;24.42;95.84
66668;BME280;57205;51.438;-2.006;2023-08-21T11:42:32;101634.91;;;24.39;96.26
66668;BME280;57205;51.438;-2.006;2023-08-21T11:44:58;101645.88;;;24.39;95.43
66668;BME280;57205;51.438;-2.006;2023-08-21T11:47:33;101630.16;;;24.27;96.63
66668;BME280;57205;51.438;-2.006;2023-08-21T11:50:07;101641.13;;;24.48;94.55
66668;BME280;57205;51.438;-2.006;2023-08-21T11:52:33;101630.94;;;24.57;92.44
66668;BME280;57205;51.438;-2.006;2023-08-21T11:55:07;101635.94;;;24.55;93.60
66668;BME280;57205;51.438;-2.006;2023-08-21T11:57:34;101634.94;;;24.59;93.39
66668;BME280;57205;51.438;-2.006;2023-08-21T12:00:00;101634.81;;;24.56;95.64
66668;BME280;57205;51.438;-2.006;2023-08-21T12:02:27;101637.88;;;24.54;95.25
66668;BME280;57205;51.438;-2.006;2023-08-21T12:05:06;101628.88;;;24.54;96.35
66668;BME280;57205;51.438;-2.006;2023-08-21T12:07:33;101627.44;;;24.48;93.72
66668;BME280;57205;51.438;-2.006;2023-08-21T12:09:59;101622.44;;;24.50;94.69
66668;BME280;57205;51.438;-2.006;2023-08-21T12:12:26;101620.78;;;24.57;96.70
66668;BME280;57205;51.438;-2.006;2023-08-21T12:14:51;101612.22;;;24.59;94.34
66668;BME280;57205;51.438;-2.006;2023-08-21T12:17:17;101620.84;;;24.69;93.84
66668;BME280;57205;51.438;-2.006;2023-08-21T12:19:43;101614.63;;;24.60;94.46
66668;BME280;57205;51.438;-2.006;2023-08-21T12:22:09;101619.59;;;24.67;95.34
66668;BME280;57205;51.438;-2.006;2023-08-21T12:24:35;101614.16;;;24.58;96.00
66668;BME280;57205;51.438;-2.006;2023-08-21T12:27:03;101612.22;;;24.59;96.67
66668;BME280;57205;51.438;-2.006;2023-08-21T12:29:29;101617.78;;;24.50;98.79
66668;BME280;57205;51.438;-2.006;2023-08-21T12:31:54;101603.63;;;24.48;97.85
66668;BME280;57205;51.438;-2.006;2023-08-21T12:34:20;101601.22;;;24.47;99.64
66668;BME280;57205;51.438;-2.006;2023-08-21T12:36:46;101609.72;;;24.54;99.49
66668;BME280;57205;51.438;-2.006;2023-08-21T12:39:12;101602.34;;;24.46;100.00
66668;BME280;57205;51.438;-2.006;2023-08-21T12:41:39;101599.41;;;24.30;100.00
66668;BME280;57205;51.438;-2.006;2023-08-21T12:44:05;101588.53;;;24.22;100.00